Silva Jardim, Brazil
Current Conditions -  °F | °C
As of 7:00 PM on Tuesday 25 Nov 2014 (Local Time) from SBES Reporting Station
Few Clouds Few Clouds  
Wind Chill: 77°   Ceiling: Unl
Heat Index: 78°   Visibility: 6mi
Dew Point: 72°   Wind: 18mph
Humidity: 83%   Direction: 70°ENE
Pressure: 29.77"   Gusts: NA
Location:  22.65°S, 42.4°W
Report Text: SBES 252100Z 07016KT 9999 FEW025 25/22 Q1008
Loading
Personal Weather Stations






























Interactive Weather Map New forecast layout! Learn more

10-Day Weather Forecast

Advertisements
Track Severe Weather on mobile